Time;durP1;ratioP1;P1;durP2;ratioP2;P2;SDS_P1;SDS_P2;PMS_P1;PMS_P2;Temp;Humidity;BMP_temperature;BMP_pressure;BME280_temperature;BME280_humidity;BME280_pressure;Samples;Min_cycle;Max_cycle;Signal;HPM_P1;HPM_P2
2021/11/03 00:00:55;;;;;;;12.75;8.32;;;6.00;99.90;;;;;;5087236;28;20531;-82
2021/11/03 00:03:23;;;;;;;14.32;8.45;;;6.00;99.90;;;;;;5085907;28;20079;-81
2021/11/03 00:05:50;;;;;;;13.80;8.57;;;5.90;99.90;;;;;;5084924;28;20524;-81
2021/11/03 00:08:21;;;;;;;16.67;8.95;;;6.00;99.90;;;;;;5084981;28;20056;-80
2021/11/03 00:10:52;;;;;;;13.85;7.80;;;5.90;99.90;;;;;;5085386;28;20107;-81
2021/11/03 00:13:22;;;;;;;11.85;8.48;;;5.90;99.90;;;;;;5085081;28;20048;-81
2021/11/03 00:16:03;;;;;;;13.05;8.75;;;5.80;99.90;;;;;;5084799;28;20119;-83
2021/11/03 00:18:30;;;;;;;14.10;8.45;;;5.70;99.90;;;;;;5082817;28;20055;-81
2021/11/03 00:20:59;;;;;;;13.70;8.95;;;5.70;99.90;;;;;;5081440;28;20078;-80
2021/11/03 00:23:27;;;;;;;12.13;8.60;;;5.70;99.90;;;;;;5082107;28;20052;-80
2021/11/03 00:25:55;;;;;;;12.95;9.02;;;5.60;99.90;;;;;;5082041;28;20072;-79
2021/11/03 00:28:23;;;;;;;10.98;8.15;;;5.60;99.90;;;;;;5083733;28;20091;-81
2021/11/03 00:30:52;;;;;;;19.67;8.73;;;5.50;99.90;;;;;;5083230;28;20048;-80
2021/11/03 00:33:23;;;;;;;12.93;8.82;;;5.40;99.90;;;;;;5083882;28;20135;-80
2021/11/03 00:35:50;;;;;;;10.90;7.53;;;5.40;99.90;;;;;;5084236;28;20087;-80
2021/11/03 00:38:17;;;;;;;13.13;8.45;;;5.40;99.90;;;;;;5087091;28;20049;-80
2021/11/03 00:40:44;;;;;;;12.55;8.60;;;5.50;99.90;;;;;;5089790;28;20075;-80
2021/11/03 00:43:12;;;;;;;12.63;8.77;;;5.50;99.90;;;;;;5087249;28;20048;-79
2021/11/03 00:45:40;;;;;;;12.73;8.68;;;5.50;99.90;;;;;;5085841;28;20095;-81
2021/11/03 00:48:07;;;;;;;13.50;9.18;;;5.50;99.90;;;;;;5089426;28;20049;-80
2021/11/03 00:50:35;;;;;;;13.05;9.10;;;5.50;99.90;;;;;;5089997;28;20071;-80
2021/11/03 00:53:02;;;;;;;11.20;8.60;;;5.50;99.90;;;;;;5082080;28;20112;-79
2021/11/03 00:55:29;;;;;;;14.25;8.88;;;5.50;99.90;;;;;;5082050;28;20053;-79
2021/11/03 00:57:55;;;;;;;11.65;9.20;;;5.50;99.90;;;;;;5081847;28;20113;-78
2021/11/03 01:00:24;;;;;;;14.48;9.27;;;5.50;99.90;;;;;;5081754;28;20051;-79
2021/11/03 01:02:51;;;;;;;15.10;9.23;;;5.30;99.90;;;;;;5082041;28;20127;-80
2021/11/03 01:05:21;;;;;;;14.60;9.23;;;5.30;99.90;;;;;;5081103;28;20127;-81
2021/11/03 01:07:50;;;;;;;12.73;9.05;;;5.30;99.90;;;;;;5081297;28;20048;-80
2021/11/03 01:10:20;;;;;;;15.35;10.10;;;5.30;99.90;;;;;;5081723;28;20060;-80
2021/11/03 01:12:47;;;;;;;15.20;10.45;;;5.30;99.90;;;;;;5081173;28;20064;-80
2021/11/03 01:15:19;;;;;;;14.43;10.43;;;5.30;99.90;;;;;;5081651;28;20055;-80
2021/11/03 01:17:47;;;;;;;14.27;10.60;;;5.30;99.90;;;;;;5081664;28;20095;-80
2021/11/03 01:20:15;;;;;;;17.95;10.20;;;5.40;99.90;;;;;;5081947;28;20100;-80
2021/11/03 01:22:42;;;;;;;14.30;10.25;;;5.50;99.90;;;;;;5082160;28;20068;-80
2021/11/03 01:25:12;;;;;;;16.38;10.60;;;5.50;99.90;;;;;;5081138;28;20068;-80
2021/11/03 01:27:39;;;;;;;13.55;9.90;;;5.50;99.90;;;;;;5081457;28;20083;-80
2021/11/03 01:30:09;;;;;;;15.40;10.50;;;5.40;99.90;;;;;;5081366;28;20108;-81
2021/11/03 01:32:36;;;;;;;14.73;10.70;;;5.40;99.90;;;;;;5081406;28;20139;-81
2021/11/03 01:35:06;;;;;;;13.70;10.65;;;5.40;99.90;;;;;;5082099;28;20131;-81
2021/11/03 01:37:33;;;;;;;14.60;10.20;;;5.40;99.90;;;;;;5081921;28;20087;-81
2021/11/03 01:39:59;;;;;;;14.25;9.75;;;5.40;99.90;;;;;;5081124;28;20485;-80
2021/11/03 01:42:27;;;;;;;14.38;10.27;;;5.50;99.90;;;;;;5081535;28;20072;-80
2021/11/03 01:44:54;;;;;;;15.82;11.13;;;5.40;99.90;;;;;;5080352;28;20045;-80
2021/11/03 01:47:43;;;;;;;19.25;11.00;;;5.40;99.90;;;;;;5081357;28;20106;-79
2021/11/03 01:50:18;;;;;;;14.18;10.52;;;5.30;99.90;;;;;;5080760;28;21258;-81
2021/11/03 01:52:48;;;;;;;17.95;10.52;;;5.20;99.90;;;;;;5082219;28;20127;-81
2021/11/03 01:55:17;;;;;;;16.85;11.25;;;5.30;99.90;;;;;;5081656;28;20107;-80
2021/11/03 01:57:47;;;;;;;15.00;10.50;;;5.20;99.90;;;;;;5082058;28;20076;-81
2021/11/03 02:00:18;;;;;;;17.42;11.07;;;5.30;99.90;;;;;;5082372;28;20500;-81
2021/11/03 02:02:45;;;;;;;19.88;11.23;;;5.30;99.90;;;;;;5081597;28;20076;-81
2021/11/03 02:05:15;;;;;;;15.30;11.85;;;5.40;99.90;;;;;;5083174;28;20086;-80
2021/11/03 02:07:42;;;;;;;17.38;11.10;;;5.30;99.90;;;;;;5084150;28;20072;-80
2021/11/03 02:10:11;;;;;;;16.70;11.23;;;5.40;99.90;;;;;;5085141;28;20119;-80
2021/11/03 02:12:38;;;;;;;16.10;11.48;;;5.30;99.90;;;;;;5081832;28;20061;-81
2021/11/03 02:15:06;;;;;;;15.18;11.70;;;5.30;99.90;;;;;;5080773;28;20091;-80
2021/11/03 02:17:35;;;;;;;16.80;11.93;;;5.20;99.90;;;;;;5080369;28;20485;-81
2021/11/03 02:20:08;;;;;;;22.52;12.18;;;5.30;99.90;;;;;;5081233;28;20083;-81
2021/11/03 02:22:42;;;;;;;18.15;12.68;;;5.30;99.90;;;;;;5080489;28;20139;-81
2021/11/03 02:25:13;;;;;;;16.20;12.23;;;5.20;99.90;;;;;;5080620;28;20159;-81
2021/11/03 02:27:43;;;;;;;17.98;11.52;;;5.30;99.90;;;;;;5080292;28;20053;-82
2021/11/03 02:30:17;;;;;;;19.48;12.50;;;5.30;99.90;;;;;;5080614;28;20053;-80
2021/11/03 02:32:44;;;;;;;17.48;11.85;;;5.30;99.90;;;;;;5080470;28;20082;-80
2021/11/03 02:35:12;;;;;;;19.77;11.60;;;5.40;99.90;;;;;;5080162;28;20185;-80
2021/11/03 02:37:44;;;;;;;17.23;11.55;;;5.50;99.90;;;;;;5079645;28;20087;-80
2021/11/03 02:40:46;;;;;;;19.88;11.93;;;5.40;99.90;;;;;;5079729;28;20083;-80
2021/11/03 02:43:19;;;;;;;16.77;11.63;;;5.50;99.90;;;;;;5072419;28;20048;-80
2021/11/03 02:45:49;;;;;;;20.98;11.30;;;5.40;99.90;;;;;;5078746;28;20080;-79
2021/11/03 02:48:16;;;;;;;17.20;12.10;;;5.40;99.90;;;;;;5082297;28;20045;-80
2021/11/03 02:51:00;;;;;;;17.13;11.57;;;5.40;99.90;;;;;;5085471;28;20057;-80
2021/11/03 02:53:28;;;;;;;18.77;12.10;;;5.40;99.90;;;;;;5086179;28;20049;-79
2021/11/03 02:55:57;;;;;;;18.33;12.52;;;5.40;99.90;;;;;;5084786;28;20083;-79
2021/11/03 02:58:24;;;;;;;18.02;11.80;;;5.40;99.90;;;;;;5084067;28;20433;-80
2021/11/03 03:00:53;;;;;;;15.32;11.77;;;5.30;99.90;;;;;;5083764;28;20155;-80
2021/11/03 03:03:22;;;;;;;16.95;12.02;;;5.40;99.90;;;;;;5084873;28;20056;-80
2021/11/03 03:05:56;;;;;;;21.67;13.63;;;5.40;99.90;;;;;;5084024;28;20052;-80
2021/11/03 03:08:23;;;;;;;16.63;11.98;;;5.30;99.90;;;;;;5086392;28;20068;-81
2021/11/03 03:10:50;;;;;;;18.60;12.65;;;5.40;99.90;;;;;;5086545;28;20083;-81
2021/11/03 03:13:19;;;;;;;21.73;12.75;;;5.40;99.90;;;;;;5086764;28;20076;-80
2021/11/03 03:15:45;;;;;;;22.58;13.25;;;5.40;99.90;;;;;;5086192;28;20079;-79
2021/11/03 03:18:12;;;;;;;23.45;13.20;;;5.40;99.90;;;;;;5087059;28;20068;-80
2021/11/03 03:20:44;;;;;;;20.33;13.50;;;5.40;99.90;;;;;;5088249;28;20076;-80
2021/11/03 03:23:24;;;;;;;20.08;13.45;;;5.50;99.90;;;;;;5088371;28;20116;-82
2021/11/03 03:25:53;;;;;;;19.08;11.80;;;5.40;99.90;;;;;;5088867;28;20044;-80
2021/11/03 03:28:22;;;;;;;18.67;12.95;;;5.40;99.90;;;;;;5088627;28;20128;-79
2021/11/03 03:30:49;;;;;;;20.48;12.63;;;5.50;99.90;;;;;;5088678;28;20189;-81
2021/11/03 03:33:16;;;;;;;22.58;12.77;;;5.40;99.90;;;;;;5087744;28;20045;-79
2021/11/03 03:35:43;;;;;;;20.67;13.55;;;5.30;99.90;;;;;;5088674;28;20048;-79
2021/11/03 03:38:10;;;;;;;21.60;13.18;;;5.30;99.90;;;;;;5089023;28;20072;-79
2021/11/03 03:40:37;;;;;;;25.58;16.52;;;5.40;99.90;;;;;;5088766;28;20078;-79
2021/11/03 03:43:04;;;;;;;24.45;14.48;;;5.50;99.90;;;;;;5089107;28;20048;-79
2021/11/03 03:45:32;;;;;;;20.90;12.82;;;5.50;99.90;;;;;;5087912;28;20044;-79
2021/11/03 03:47:59;;;;;;;26.45;13.98;;;5.50;99.90;;;;;;5089332;28;20087;-78
2021/11/03 03:50:26;;;;;;;22.85;13.50;;;5.50;99.90;;;;;;5087967;28;20076;-77
2021/11/03 03:52:53;;;;;;;23.95;14.38;;;5.60;99.90;;;;;;5088973;28;20055;-78
2021/11/03 03:55:20;;;;;;;24.00;13.65;;;5.60;99.90;;;;;;5089212;28;20162;-78
2021/11/03 03:57:47;;;;;;;22.48;12.77;;;5.60;99.90;;;;;;5108663;28;20068;-77
2021/11/03 04:00:17;;;;;;;24.02;13.50;;;5.60;99.90;;;;;;5109670;28;20055;-78
2021/11/03 04:02:45;;;;;;;30.08;14.85;;;5.70;99.90;;;;;;5108913;28;20515;-78
2021/11/03 04:05:13;;;;;;;25.85;14.13;;;5.60;99.90;;;;;;5105145;28;20052;-79
2021/11/03 04:07:40;;;;;;;31.27;17.65;;;5.70;99.90;;;;;;5099734;28;20479;-78
2021/11/03 04:10:08;;;;;;;23.67;14.23;;;5.80;99.90;;;;;;5100065;28;20131;-79
2021/11/03 04:12:36;;;;;;;28.85;16.48;;;5.70;99.90;;;;;;5099304;28;20474;-78
2021/11/03 04:15:04;;;;;;;31.85;18.75;;;5.70;99.90;;;;;;5097872;28;20048;-79
2021/11/03 04:17:31;;;;;;;32.05;16.85;;;5.80;99.90;;;;;;5099741;28;20041;-78
2021/11/03 04:19:59;;;;;;;29.20;16.27;;;5.80;99.90;;;;;;5099292;28;20048;-79
2021/11/03 04:22:26;;;;;;;27.88;15.18;;;5.80;99.90;;;;;;5099127;28;20047;-79
2021/11/03 04:24:53;;;;;;;27.23;14.57;;;5.80;99.90;;;;;;5098697;28;20090;-78
2021/11/03 04:27:20;;;;;;;31.13;16.27;;;5.90;99.90;;;;;;5104019;28;20116;-79
2021/11/03 04:29:47;;;;;;;28.48;16.13;;;5.80;99.90;;;;;;5106309;28;20047;-79
2021/11/03 04:32:14;;;;;;;30.45;16.08;;;5.80;99.90;;;;;;5107663;28;20121;-79
2021/11/03 04:34:41;;;;;;;31.15;15.68;;;5.80;99.90;;;;;;5099811;28;20048;-79
2021/11/03 04:37:12;;;;;;;29.67;16.50;;;5.80;99.90;;;;;;5101587;28;20056;-79
2021/11/03 04:39:39;;;;;;;31.35;16.27;;;5.70;99.90;;;;;;5103385;28;20138;-79
2021/11/03 04:42:07;;;;;;;36.00;17.92;;;5.70;99.90;;;;;;5102583;28;20105;-79
2021/11/03 04:44:34;;;;;;;31.88;15.95;;;5.70;99.90;;;;;;5103920;28;20079;-79
2021/11/03 04:47:01;;;;;;;33.38;16.83;;;5.70;99.90;;;;;;5102384;28;20129;-80
2021/11/03 04:49:29;;;;;;;37.33;19.00;;;5.70;99.90;;;;;;5103182;28;20119;-80
2021/11/03 04:51:55;;;;;;;32.72;17.55;;;5.70;99.90;;;;;;5104378;28;20082;-79
2021/11/03 04:54:24;;;;;;;34.45;18.08;;;5.80;99.90;;;;;;5109075;28;20084;-77
2021/11/03 04:56:51;;;;;;;34.10;18.15;;;5.80;99.90;;;;;;5112388;28;20052;-79
2021/11/03 04:59:19;;;;;;;35.22;19.08;;;5.80;99.90;;;;;;5115414;28;20036;-78
2021/11/03 05:01:46;;;;;;;37.13;17.75;;;5.80;99.90;;;;;;5066881;28;20064;-79
2021/11/03 05:04:13;;;;;;;35.58;18.17;;;5.80;99.90;;;;;;5072819;28;20049;-78
2021/11/03 05:06:44;;;;;;;35.00;16.35;;;5.90;99.90;;;;;;5063658;28;20083;-79
2021/11/03 05:09:12;;;;;;;31.20;16.92;;;5.90;99.90;;;;;;5063095;28;20049;-79
2021/11/03 05:11:40;;;;;;;37.58;17.50;;;5.90;99.90;;;;;;5064748;28;20084;-78
2021/11/03 05:14:07;;;;;;;37.10;17.35;;;5.90;99.90;;;;;;5065939;28;20083;-79
2021/11/03 05:16:35;;;;;;;33.13;17.15;;;6.00;99.90;;;;;;5063059;28;20325;-78
2021/11/03 05:19:03;;;;;;;35.25;18.13;;;6.00;99.90;;;;;;5064067;28;20052;-78
2021/11/03 05:21:30;;;;;;;36.05;19.88;;;6.00;99.90;;;;;;5063761;28;20071;-78
2021/11/03 05:23:57;;;;;;;32.60;16.50;;;6.00;99.90;;;;;;5065459;28;20083;-78
2021/11/03 05:26:27;;;;;;;36.60;17.73;;;6.00;99.90;;;;;;5065823;28;20083;-78
2021/11/03 05:28:58;;;;;;;35.35;17.88;;;6.00;99.90;;;;;;5067959;28;20045;-77
2021/11/03 05:31:25;;;;;;;34.70;17.58;;;6.00;99.90;;;;;;5069336;28;20048;-78
2021/11/03 05:33:52;;;;;;;36.63;17.83;;;6.00;99.90;;;;;;5062038;28;20111;-78
2021/11/03 05:36:22;;;;;;;34.67;16.83;;;6.00;99.90;;;;;;5059840;28;20460;-78
2021/11/03 05:38:49;;;;;;;38.05;17.92;;;6.00;99.90;;;;;;5061636;28;20505;-78
2021/11/03 05:41:16;;;;;;;37.90;17.83;;;6.10;99.90;;;;;;5061021;28;20096;-78
2021/11/03 05:43:42;;;;;;;38.33;18.05;;;6.00;99.90;;;;;;5064410;28;20131;-78
2021/11/03 05:46:15;;;;;;;37.85;18.15;;;5.90;99.90;;;;;;5076634;23;20434;-78
2021/11/03 05:48:45;;;;;;;39.15;18.17;;;5.90;99.90;;;;;;5063405;28;20080;-77
2021/11/03 05:51:12;;;;;;;38.45;17.70;;;5.90;99.90;;;;;;5053195;28;20049;-79
2021/11/03 05:53:39;;;;;;;37.45;19.33;;;5.90;99.90;;;;;;5054025;28;20152;-76
2021/11/03 05:56:08;;;;;;;39.45;18.25;;;5.90;99.90;;;;;;5045532;28;20105;-77
2021/11/03 05:58:36;;;;;;;40.33;18.20;;;5.90;99.90;;;;;;5036340;28;20199;-79
2021/11/03 06:01:04;;;;;;;38.72;18.23;;;5.90;99.90;;;;;;5036993;28;20061;-79
2021/11/03 06:03:33;;;;;;;38.75;17.23;;;6.00;99.90;;;;;;5037896;28;20177;-81
2021/11/03 06:06:00;;;;;;;42.35;18.48;;;6.00;99.90;;;;;;5037009;28;20126;-78
2021/11/03 06:08:27;;;;;;;37.63;17.42;;;6.00;99.90;;;;;;5032595;28;20137;-78
2021/11/03 06:10:56;;;;;;;37.10;18.17;;;6.00;99.90;;;;;;5032324;28;20055;-80
2021/11/03 06:13:23;;;;;;;36.97;18.08;;;6.00;99.90;;;;;;5032421;28;20049;-77
2021/11/03 06:15:50;;;;;;;37.65;18.23;;;6.00;99.90;;;;;;5032201;28;20132;-78
2021/11/03 06:18:17;;;;;;;36.45;18.00;;;6.00;99.90;;;;;;5032707;28;20425;-78
2021/11/03 06:20:46;;;;;;;36.00;17.83;;;6.10;99.90;;;;;;5032397;28;20053;-79
2021/11/03 06:23:16;;;;;;;35.40;17.58;;;6.10;99.90;;;;;;5033495;28;20103;-76
2021/11/03 06:25:43;;;;;;;37.05;17.75;;;6.10;99.90;;;;;;5032567;28;20140;-78
2021/11/03 06:28:10;;;;;;;38.17;17.08;;;6.10;99.90;;;;;;5036475;28;20056;-80
2021/11/03 06:30:38;;;;;;;35.03;16.58;;;6.10;99.90;;;;;;5033239;28;20137;-77
2021/11/03 06:33:06;;;;;;;32.55;16.95;;;6.20;99.90;;;;;;5032461;28;20049;-78
2021/11/03 06:35:35;;;;;;;33.75;16.77;;;6.20;99.90;;;;;;5031733;28;20136;-75
2021/11/03 06:38:04;;;;;;;32.75;17.10;;;6.20;99.90;;;;;;5032064;28;20144;-77
2021/11/03 06:40:31;;;;;;;35.95;17.73;;;6.10;99.90;;;;;;5031809;28;20119;-77
2021/11/03 06:42:58;;;;;;;37.15;18.00;;;6.10;99.90;;;;;;5031819;28;20049;-78
2021/11/03 06:45:25;;;;;;;37.38;17.25;;;6.10;99.90;;;;;;5031267;28;20161;-77
2021/11/03 06:47:53;;;;;;;36.50;17.20;;;6.10;99.90;;;;;;5031434;28;20087;-78
2021/11/03 06:50:24;;;;;;;33.83;18.38;;;6.10;99.90;;;;;;5032284;28;20470;-78
2021/11/03 06:52:53;;;;;;;40.25;19.52;;;6.10;99.90;;;;;;5032409;28;20049;-77
2021/11/03 06:55:21;;;;;;;35.85;18.45;;;6.10;99.90;;;;;;5031951;28;20425;-77
2021/11/03 06:57:49;;;;;;;31.98;17.38;;;6.10;99.90;;;;;;5031409;28;20081;-77
2021/11/03 07:00:19;;;;;;;32.15;18.13;;;6.20;99.90;;;;;;5031729;28;20049;-77
2021/11/03 07:02:46;;;;;;;35.13;17.13;;;6.20;99.90;;;;;;5031827;28;20084;-77
2021/11/03 07:05:13;;;;;;;30.38;17.45;;;6.30;99.90;;;;;;5032663;28;20109;-80
2021/11/03 07:07:43;;;;;;;33.80;18.08;;;6.30;99.90;;;;;;5038381;28;20446;-80
2021/11/03 07:10:14;;;;;;;33.08;17.58;;;6.30;99.90;;;;;;5034175;28;20045;-76
2021/11/03 07:12:43;;;;;;;33.97;17.13;;;6.30;99.90;;;;;;5032109;28;20076;-77
2021/11/03 07:15:13;;;;;;;32.58;17.67;;;6.40;99.90;;;;;;5031853;28;20049;-77
2021/11/03 07:17:49;;;;;;;31.40;16.70;;;6.40;99.90;;;;;;5032184;28;20139;-77
2021/11/03 07:20:20;;;;;;;29.25;15.65;;;6.40;99.90;;;;;;5031982;28;20084;-78
2021/11/03 07:22:47;;;;;;;30.83;16.70;;;6.50;99.90;;;;;;5031817;28;20049;-77
2021/11/03 07:25:17;;;;;;;31.10;16.55;;;6.50;99.90;;;;;;5031470;28;20080;-77
2021/11/03 07:27:46;;;;;;;32.10;16.75;;;6.60;99.90;;;;;;5032715;28;20087;-76
2021/11/03 07:30:15;;;;;;;27.63;16.40;;;6.60;99.90;;;;;;5032236;28;20491;-77
2021/11/03 07:32:42;;;;;;;31.50;17.40;;;6.60;99.90;;;;;;5033075;28;20053;-78
2021/11/03 07:35:09;;;;;;;26.85;16.23;;;6.80;99.90;;;;;;5032127;28;20132;-76
2021/11/03 07:37:37;;;;;;;29.70;15.80;;;6.70;99.90;;;;;;5032192;28;20518;-77
2021/11/03 07:40:06;;;;;;;32.47;17.20;;;6.70;99.90;;;;;;5031219;28;20128;-77
2021/11/03 07:42:33;;;;;;;28.85;16.95;;;6.70;99.90;;;;;;5031851;28;20049;-77
2021/11/03 07:45:01;;;;;;;26.00;16.80;;;6.80;99.90;;;;;;5031643;28;20140;-77
2021/11/03 07:47:28;;;;;;;24.70;15.15;;;6.70;99.90;;;;;;5033127;28;20136;-76
2021/11/03 07:49:55;;;;;;;24.70;14.73;;;6.80;99.90;;;;;;5032388;28;20406;-79
2021/11/03 07:52:22;;;;;;;22.85;14.57;;;6.90;99.90;;;;;;5031427;28;20596;-78
2021/11/03 07:54:49;;;;;;;22.33;13.98;;;6.90;99.90;;;;;;5031352;28;20132;-76
2021/11/03 07:57:15;;;;;;;25.85;14.45;;;6.90;99.90;;;;;;5031284;28;20149;-78
2021/11/03 07:59:43;;;;;;;25.75;15.13;;;6.90;99.90;;;;;;5033377;28;20076;-77
2021/11/03 08:02:11;;;;;;;29.67;14.60;;;6.80;99.90;;;;;;5035096;28;20049;-78
2021/11/03 08:04:38;;;;;;;23.10;14.45;;;6.90;99.90;;;;;;5035151;28;20080;-77
2021/11/03 08:07:06;;;;;;;26.13;14.40;;;6.80;99.90;;;;;;5034483;28;20628;-77
2021/11/03 08:09:32;;;;;;;19.13;13.05;;;6.80;99.90;;;;;;5034681;28;20050;-76
2021/11/03 08:12:01;;;;;;;21.20;13.80;;;6.90;99.90;;;;;;5034954;28;20132;-77
2021/11/03 08:14:30;;;;;;;23.45;13.82;;;6.90;99.90;;;;;;5034955;28;20053;-77
2021/11/03 08:17:00;;;;;;;20.55;13.60;;;6.90;99.90;;;;;;5034849;28;20053;-77
2021/11/03 08:19:36;;;;;;;20.10;13.32;;;6.90;99.90;;;;;;5036189;28;20081;-78
2021/11/03 08:22:03;;;;;;;23.73;13.45;;;7.00;99.90;;;;;;5035052;28;20485;-77
2021/11/03 08:24:30;;;;;;;22.00;13.05;;;7.00;99.90;;;;;;5034721;28;20132;-78
2021/11/03 08:26:57;;;;;;;20.25;12.75;;;7.00;99.90;;;;;;5034524;28;20498;-77
2021/11/03 08:29:26;;;;;;;21.17;13.13;;;7.10;99.90;;;;;;5034740;28;20132;-77
2021/11/03 08:31:56;;;;;;;18.80;12.85;;;7.20;99.90;;;;;;5034574;28;20096;-78
2021/11/03 08:34:24;;;;;;;19.50;13.40;;;7.10;99.90;;;;;;5035221;28;20053;-77
2021/11/03 08:36:53;;;;;;;21.20;12.57;;;7.30;99.90;;;;;;5034630;28;20140;-80
2021/11/03 08:39:20;;;;;;;26.35;15.85;;;7.40;99.90;;;;;;5034754;28;20080;-78
2021/11/03 08:41:46;;;;;;;25.13;13.80;;;7.50;99.90;;;;;;5034653;28;20051;-78
2021/11/03 08:44:14;;;;;;;20.02;13.52;;;7.60;99.90;;;;;;5034264;28;20056;-76
2021/11/03 08:46:41;;;;;;;21.48;13.27;;;7.70;99.90;;;;;;5042066;28;20070;-79
2021/11/03 08:49:08;;;;;;;18.67;12.07;;;7.80;99.90;;;;;;5052834;28;20083;-77
2021/11/03 08:51:36;;;;;;;22.75;12.68;;;7.90;99.90;;;;;;5055047;28;20135;-77
2021/11/03 08:54:07;;;;;;;18.30;13.07;;;7.90;99.90;;;;;;5054276;28;20045;-78
2021/11/03 08:56:35;;;;;;;18.63;12.85;;;8.00;99.90;;;;;;5051442;28;20060;-77
2021/11/03 08:59:03;;;;;;;20.42;12.73;;;8.10;99.90;;;;;;5043377;28;20072;-78
2021/11/03 09:01:33;;;;;;;19.70;13.00;;;8.10;99.90;;;;;;5054029;28;20151;-77
2021/11/03 09:04:00;;;;;;;18.63;12.07;;;8.10;99.90;;;;;;5054010;28;20045;-79
2021/11/03 09:06:27;;;;;;;18.17;12.48;;;8.20;99.90;;;;;;5053832;28;20053;-77
2021/11/03 09:08:54;;;;;;;20.05;12.77;;;8.10;99.90;;;;;;5053834;28;20076;-77
2021/11/03 09:11:23;;;;;;;23.50;12.85;;;8.20;99.90;;;;;;5052349;28;20180;-78
2021/11/03 09:13:51;;;;;;;20.77;13.30;;;8.20;99.90;;;;;;5053656;28;20091;-76
2021/11/03 09:16:18;;;;;;;19.27;12.80;;;8.20;99.90;;;;;;5053162;28;20556;-77
2021/11/03 09:18:45;;;;;;;21.40;12.95;;;8.30;99.90;;;;;;5053484;28;20055;-77
2021/11/03 09:21:12;;;;;;;21.45;13.80;;;8.30;99.90;;;;;;5053369;28;20135;-76
2021/11/03 09:23:39;;;;;;;19.48;12.70;;;8.20;99.90;;;;;;5053356;28;20049;-77
2021/11/03 09:26:06;;;;;;;20.55;13.05;;;8.30;99.90;;;;;;5053206;28;20049;-76
2021/11/03 09:28:35;;;;;;;20.02;12.80;;;8.30;99.90;;;;;;5052884;28;20152;-76
2021/11/03 09:31:04;;;;;;;18.63;11.57;;;8.30;99.90;;;;;;5053295;28;20421;-77
2021/11/03 09:33:33;;;;;;;20.30;13.18;;;8.30;99.90;;;;;;5053258;28;20454;-77
2021/11/03 09:36:00;;;;;;;17.70;12.25;;;8.20;99.90;;;;;;5052633;28;20551;-77
2021/11/03 09:38:29;;;;;;;18.67;11.90;;;8.40;99.90;;;;;;5052790;28;20053;-76
2021/11/03 09:40:59;;;;;;;24.05;13.60;;;8.30;99.90;;;;;;5052787;28;20152;-76
2021/11/03 09:43:31;;;;;;;19.38;13.15;;;8.30;99.90;;;;;;5050329;28;20083;-77
2021/11/03 09:46:01;;;;;;;19.17;13.10;;;8.20;99.90;;;;;;5051826;28;20114;-76
2021/11/03 09:48:29;;;;;;;20.48;14.15;;;8.30;99.90;;;;;;5050339;28;20132;-75
2021/11/03 09:50:59;;;;;;;25.55;13.93;;;8.30;99.90;;;;;;5051775;28;20037;-75
2021/11/03 09:53:37;;;;;;;21.92;14.43;;;8.30;99.90;;;;;;5050062;28;20049;-75
2021/11/03 09:56:10;;;;;;;24.05;14.65;;;8.30;99.90;;;;;;5052015;28;20053;-75
2021/11/03 09:58:51;;;;;;;25.02;14.43;;;8.20;99.90;;;;;;5049545;28;20085;-74
2021/11/03 10:01:26;;;;;;;20.60;14.13;;;8.30;99.90;;;;;;5049586;28;20128;-75
2021/11/03 10:04:15;;;;;;;25.73;13.77;;;8.20;99.90;;;;;;5052039;28;20141;-75
2021/11/03 10:06:51;;;;;;;30.00;16.25;;;8.20;99.90;;;;;;5050136;28;20051;-75
2021/11/03 10:09:18;;;;;;;22.45;15.05;;;8.20;99.90;;;;;;5050129;28;20080;-75
2021/11/03 10:11:48;;;;;;;22.48;14.95;;;8.20;99.90;;;;;;5051882;28;20080;-76
2021/11/03 10:14:15;;;;;;;23.77;15.43;;;8.20;99.90;;;;;;5051790;28;20041;-75
2021/11/03 10:16:45;;;;;;;20.77;13.82;;;8.20;99.90;;;;;;5051573;28;20049;-74
2021/11/03 10:19:30;;;;;;;21.42;14.57;;;8.30;99.90;;;;;;5052114;28;20132;-74
2021/11/03 10:21:59;;;;;;;22.33;14.98;;;8.30;99.90;;;;;;5050142;28;20084;-77
2021/11/03 10:24:44;;;;;;;23.40;14.38;;;8.30;99.90;;;;;;5052208;28;20128;-75
2021/11/03 10:27:19;;;;;;;25.55;13.88;;;8.40;99.90;;;;;;5052326;28;20060;-75
2021/11/03 10:29:48;;;;;;;20.48;14.32;;;8.50;99.90;;;;;;5052244;28;20131;-75
2021/11/03 10:32:34;;;;;;;22.10;14.43;;;8.50;99.90;;;;;;5051876;28;20052;-77
2021/11/03 10:35:16;;;;;;;23.38;13.77;;;8.50;99.90;;;;;;5051982;28;20775;-75
2021/11/03 10:37:45;;;;;;;20.35;12.95;;;8.50;99.90;;;;;;5052257;28;20121;-79
2021/11/03 10:40:25;;;;;;;23.52;13.48;;;8.60;99.90;;;;;;5051682;28;20576;-76
2021/11/03 10:42:56;;;;;;;19.88;13.30;;;8.70;99.90;;;;;;5051421;28;20124;-77
2021/11/03 10:45:28;;;;;;;20.77;13.38;;;8.60;99.90;;;;;;5051193;28;20060;-76
2021/11/03 10:48:10;;;;;;;20.07;13.33;;;8.70;99.90;;;;;;5051097;28;20107;-76
2021/11/03 10:50:40;;;;;;;20.35;13.50;;;8.50;99.90;;;;;;5050992;28;20487;-75
2021/11/03 10:53:19;;;;;;;20.23;13.45;;;8.50;99.90;;;;;;5049568;28;20508;-75
2021/11/03 10:55:49;;;;;;;21.08;13.88;;;8.60;99.90;;;;;;5049437;28;20497;-77
2021/11/03 10:58:28;;;;;;;18.27;13.00;;;8.60;99.90;;;;;;5051718;28;20055;-75
2021/11/03 11:01:07;;;;;;;20.42;13.55;;;8.70;99.90;;;;;;5051327;28;20131;-76
2021/11/03 11:03:39;;;;;;;23.75;13.73;;;8.50;99.90;;;;;;5052901;28;20057;-76
2021/11/03 11:06:16;;;;;;;21.77;14.03;;;8.60;99.90;;;;;;5051767;28;20084;-76
2021/11/03 11:08:51;;;;;;;21.63;14.40;;;8.70;99.90;;;;;;5052863;28;20084;-77
2021/11/03 11:11:22;;;;;;;23.83;14.20;;;8.70;99.90;;;;;;5051865;28;20045;-75
2021/11/03 11:14:00;;;;;;;21.70;13.85;;;8.70;99.90;;;;;;5048998;28;20405;-76
2021/11/03 11:16:37;;;;;;;18.48;13.43;;;8.70;99.90;;;;;;5047969;28;20049;-76
2021/11/03 11:19:19;;;;;;;20.98;14.23;;;8.80;99.90;;;;;;5050661;28;20135;-76
2021/11/03 11:21:49;;;;;;;21.77;14.27;;;8.70;99.90;;;;;;5048351;28;20077;-78
2021/11/03 11:24:23;;;;;;;22.60;14.93;;;8.60;99.90;;;;;;5051390;28;20092;-75
2021/11/03 11:27:00;;;;;;;24.77;15.60;;;8.80;99.90;;;;;;5050873;28;20064;-76
2021/11/03 11:29:33;;;;;;;25.73;14.43;;;8.80;99.90;;;;;;5050961;28;20118;-75
2021/11/03 11:32:05;;;;;;;23.00;14.80;;;8.80;99.90;;;;;;5050717;28;20083;-76
2021/11/03 11:34:50;;;;;;;24.60;16.20;;;8.80;99.90;;;;;;5049389;28;20124;-75
2021/11/03 11:37:24;;;;;;;23.17;15.27;;;8.80;99.90;;;;;;5050372;28;20422;-77
2021/11/03 11:39:54;;;;;;;27.75;15.85;;;8.80;99.90;;;;;;5049623;28;20148;-78
2021/11/03 11:42:39;;;;;;;24.98;16.05;;;8.80;99.90;;;;;;5051446;28;20063;-77
2021/11/03 11:45:16;;;;;;;25.33;16.63;;;8.80;99.90;;;;;;5051056;28;20444;-76
2021/11/03 11:51:13;;;;;;;28.73;17.23;;;8.80;99.90;;;;;;520361;26;21103;-80
2021/11/03 12:07:40;;;;;;;25.40;16.58;;;8.70;99.90;;;;;;5043051;28;20044;-81
2021/11/03 12:10:41;;;;;;;25.52;16.67;;;8.70;99.90;;;;;;5042216;28;20049;-82
2021/11/03 12:17:39;;;;;;;28.25;15.88;;;8.70;99.90;;;;;;5026430;28;20057;-79
2021/11/03 12:34:21;;;;;;;31.38;19.33;;;8.80;99.90;;;;;;4941558;29;20547;-79
2021/11/03 13:09:12;;;;;;;28.00;18.20;;;8.70;99.90;;;;;;4865874;29;20556;-83
2021/11/03 13:16:09;;;;;;;25.40;16.20;;;8.90;99.90;;;;;;4974760;28;20058;-80
2021/11/03 13:19:12;;;;;;;22.05;14.52;;;9.00;99.90;;;;;;4888515;29;20065;-83
2021/11/03 13:22:35;;;;;;;25.37;16.73;;;9.00;99.90;;;;;;4888452;29;20060;-83
2021/11/03 13:25:06;;;;;;;19.75;14.63;;;8.90;99.90;;;;;;4900894;29;20302;-83
2021/11/03 13:27:35;;;;;;;21.60;15.07;;;9.00;99.90;;;;;;4964492;28;20059;-80
2021/11/03 13:30:06;;;;;;;23.80;15.32;;;9.00;99.90;;;;;;4962900;29;20070;-82
2021/11/03 13:32:36;;;;;;;24.08;15.48;;;9.00;99.90;;;;;;4969387;28;20524;-84
2021/11/03 13:35:30;;;;;;;24.08;16.15;;;9.10;99.90;;;;;;5034496;28;20084;-82
2021/11/03 13:38:04;;;;;;;22.75;15.82;;;9.10;99.90;;;;;;5055365;28;20077;-82
2021/11/03 13:40:41;;;;;;;24.75;17.08;;;9.10;99.90;;;;;;5053069;28;20091;-81
2021/11/03 13:43:15;;;;;;;22.00;16.00;;;9.10;99.90;;;;;;5051314;28;20053;-79
2021/11/03 13:45:45;;;;;;;23.70;15.73;;;9.10;99.90;;;;;;5047949;28;20126;-81
2021/11/03 13:48:25;;;;;;;26.75;17.70;;;9.10;99.90;;;;;;5050740;28;20121;-80
2021/11/03 13:51:23;;;;;;;26.20;16.08;;;9.10;99.90;;;;;;5049027;28;20052;-81
2021/11/03 13:53:57;;;;;;;24.35;14.88;;;9.00;99.90;;;;;;5060102;28;20041;-80
2021/11/03 13:56:28;;;;;;;20.23;13.55;;;9.00;99.90;;;;;;5070147;28;20140;-81
2021/11/03 13:59:22;;;;;;;20.15;12.85;;;9.00;99.90;;;;;;5055484;28;20050;-82
2021/11/03 14:02:02;;;;;;;16.30;10.60;;;8.90;99.90;;;;;;5047663;28;20053;-81
2021/11/03 14:04:51;;;;;;;19.83;11.13;;;8.90;99.90;;;;;;5044794;28;20057;-82
2021/11/03 14:07:27;;;;;;;15.13;9.25;;;8.90;99.90;;;;;;5051205;28;20064;-82